Time;durP1;ratioP1;P1;durP2;ratioP2;P2;SDS_P1;SDS_P2;PMS_P1;PMS_P2;Temp;Humidity;BMP_temperature;BMP_pressure;BME280_temperature;BME280_humidity;BME280_pressure;Samples;Min_cycle;Max_cycle;Signal;HPM_P1;HPM_P2
2023/10/27 00:00:34;;;;;;;;;;;;;;;14.02;64.72;99081.91;4928828;29;19954;-82
2023/10/27 00:02:59;;;;;;;;;;;;;;;14.02;64.53;99079.19;4932535;29;19926;-81
2023/10/27 00:05:25;;;;;;;;;;;;;;;14.02;64.60;99081.09;4953301;28;19933;-81
2023/10/27 00:07:50;;;;;;;;;;;;;;;14.01;64.71;99080.31;4945264;28;19958;-83
2023/10/27 00:10:15;;;;;;;;;;;;;;;14.01;64.82;99080.31;4942387;29;19923;-81
2023/10/27 00:12:40;;;;;;;;;;;;;;;14.02;64.69;99075.69;4951913;29;20326;-81
2023/10/27 00:15:06;;;;;;;;;;;;;;;14.02;64.60;99071.03;4947859;28;19958;-81
2023/10/27 00:17:31;;;;;;;;;;;;;;;14.01;64.58;99076.75;4953526;28;20003;-81
2023/10/27 00:19:58;;;;;;;;;;;;;;;14.00;64.52;99078.69;4958969;28;20351;-82
2023/10/27 00:22:25;;;;;;;;;;;;;;;14.00;64.92;99069.75;4949530;29;19918;-83
2023/10/27 00:24:50;;;;;;;;;;;;;;;14.00;64.62;99069.75;4960589;28;19926;-81
2023/10/27 00:27:15;;;;;;;;;;;;;;;13.99;64.78;99074.38;4934990;29;20256;-83
2023/10/27 00:29:41;;;;;;;;;;;;;;;13.99;64.62;99068.94;4950326;29;19930;-83
2023/10/27 00:32:06;;;;;;;;;;;;;;;13.99;64.84;99060.81;4951596;29;20414;-81
2023/10/27 00:34:31;;;;;;;;;;;;;;;13.99;64.53;99068.16;4946289;29;19962;-82
2023/10/27 00:36:57;;;;;;;;;;;;;;;13.99;64.82;99068.16;4956640;28;20483;-82
2023/10/27 00:39:22;;;;;;;;;;;;;;;13.99;64.82;99060.00;4949872;28;19930;-86
2023/10/27 00:41:47;;;;;;;;;;;;;;;13.99;64.75;99062.72;4938928;29;20562;-82
2023/10/27 00:44:12;;;;;;;;;;;;;;;13.99;64.46;99055.38;4946537;28;19918;-80
2023/10/27 00:46:39;;;;;;;;;;;;;;;14.00;64.53;99058.88;4948029;29;20438;-82
2023/10/27 00:49:04;;;;;;;;;;;;;;;14.00;64.59;99053.47;4952225;29;19918;-82
2023/10/27 00:51:30;;;;;;;;;;;;;;;14.00;64.78;99053.47;4945484;28;19965;-80
2023/10/27 00:53:56;;;;;;;;;;;;;;;14.00;64.62;99053.47;4945014;28;20012;-85
2023/10/27 00:56:21;;;;;;;;;;;;;;;13.99;64.64;99052.66;4944265;28;19926;-82
2023/10/27 00:58:47;;;;;;;;;;;;;;;14.00;64.84;99056.16;4946417;28;19953;-82
2023/10/27 01:01:15;;;;;;;;;;;;;;;13.99;64.88;99054.56;4931041;28;20393;-82
2023/10/27 01:03:41;;;;;;;;;;;;;;;13.99;64.91;99049.16;4947759;28;19918;-82
2023/10/27 01:06:07;;;;;;;;;;;;;;;14.00;64.88;99048.03;4943978;28;19922;-82
2023/10/27 01:08:32;;;;;;;;;;;;;;;13.99;64.72;99049.16;4944483;28;19922;-83
2023/10/27 01:10:57;;;;;;;;;;;;;;;14.00;64.69;99050.75;4948364;28;19962;-83
2023/10/27 01:13:22;;;;;;;;;;;;;;;13.99;64.55;99044.50;4940532;28;19926;-82
2023/10/27 01:15:48;;;;;;;;;;;;;;;14.00;64.55;99045.31;4948851;29;20429;-81
2023/10/27 01:18:13;;;;;;;;;;;;;;;14.00;64.82;99045.31;4927627;29;19923;-86
2023/10/27 01:20:39;;;;;;;;;;;;;;;13.99;64.55;99044.50;4946966;29;19970;-81
2023/10/27 01:23:05;;;;;;;;;;;;;;;14.01;64.59;99046.91;4951015;28;19926;-81
2023/10/27 01:25:30;;;;;;;;;;;;;;;13.99;64.59;99044.50;4953858;29;19922;-84
2023/10/27 01:27:57;;;;;;;;;;;;;;;14.00;64.73;99045.31;4954065;28;19981;-80
2023/10/27 01:30:22;;;;;;;;;;;;;;;14.00;64.52;99042.59;4952295;28;19929;-81
2023/10/27 01:32:48;;;;;;;;;;;;;;;13.99;64.91;99043.72;4932488;29;19924;-80
2023/10/27 01:35:13;;;;;;;;;;;;;;;13.99;64.82;99044.50;4964213;28;19927;-80
2023/10/27 01:37:38;;;;;;;;;;;;;;;13.98;64.56;99040.19;4947147;28;19974;-83
2023/10/27 01:40:04;;;;;;;;;;;;;;;13.99;64.57;99038.28;4962051;28;19985;-80
2023/10/27 01:42:31;;;;;;;;;;;;;;;13.99;64.74;99039.09;4954228;29;19923;-81
2023/10/27 01:44:57;;;;;;;;;;;;;;;13.98;64.80;99037.47;4951639;29;20330;-81
2023/10/27 01:47:22;;;;;;;;;;;;;;;13.98;64.68;99032.03;4954682;28;20366;-82
2023/10/27 01:49:47;;;;;;;;;;;;;;;13.99;64.90;99035.56;4954117;29;19922;-83
2023/10/27 01:52:13;;;;;;;;;;;;;;;13.99;64.59;99030.16;4953713;29;20286;-82
2023/10/27 01:54:38;;;;;;;;;;;;;;;13.99;64.78;99030.94;4936872;29;19922;-80
2023/10/27 01:57:03;;;;;;;;;;;;;;;13.99;64.79;99024.72;4937364;29;19922;-86
2023/10/27 01:59:29;;;;;;;;;;;;;;;13.99;64.92;99022.81;4951853;28;20391;-79
2023/10/27 02:01:54;;;;;;;;;;;;;;;14.00;64.56;99023.59;4949043;29;20362;-81
2023/10/27 02:04:20;;;;;;;;;;;;;;;14.00;64.76;99034.44;4964235;28;19926;-82
2023/10/27 02:06:45;;;;;;;;;;;;;;;14.00;64.69;99026.31;4929255;29;20004;-81
2023/10/27 02:09:10;;;;;;;;;;;;;;;13.99;64.83;99022.00;4952716;28;19925;-82
2023/10/27 02:11:36;;;;;;;;;;;;;;;13.99;64.57;99022.00;4965662;28;19926;-81
2023/10/27 02:14:01;;;;;;;;;;;;;;;13.98;64.64;99021.19;4936410;28;19959;-82
2023/10/27 02:16:26;;;;;;;;;;;;;;;13.97;64.76;99016.88;4948149;28;19929;-81
2023/10/27 02:18:52;;;;;;;;;;;;;;;13.99;64.60;99022.00;4948684;29;19919;-81
2023/10/27 02:21:17;;;;;;;;;;;;;;;13.99;64.64;99020.09;4948061;29;20390;-81
2023/10/27 02:23:42;;;;;;;;;;;;;;;14.00;64.87;99012.75;4954330;29;19926;-81
2023/10/27 02:26:08;;;;;;;;;;;;;;;13.98;64.83;99012.25;4950839;29;20294;-82
2023/10/27 02:28:33;;;;;;;;;;;;;;;13.99;64.85;99011.16;4932941;29;19923;-80
2023/10/27 02:30:58;;;;;;;;;;;;;;;13.99;64.62;99011.16;4946873;28;19929;-82
2023/10/27 02:33:24;;;;;;;;;;;;;;;13.98;64.83;99017.66;4952035;28;20397;-80
2023/10/27 02:35:49;;;;;;;;;;;;;;;13.99;64.79;99013.84;4953620;29;19922;-81
2023/10/27 02:38:14;;;;;;;;;;;;;;;13.97;64.83;99011.44;4938909;29;19923;-80
2023/10/27 02:40:39;;;;;;;;;;;;;;;13.98;65.00;99012.25;4952296;29;19929;-81
2023/10/27 02:43:05;;;;;;;;;;;;;;;13.98;64.78;99013.03;4935250;29;20017;-80
2023/10/27 02:45:30;;;;;;;;;;;;;;;13.98;64.83;99018.47;4948924;29;19922;-81
2023/10/27 02:47:55;;;;;;;;;;;;;;;13.97;64.77;99008.72;4953039;29;19933;-81
2023/10/27 02:50:21;;;;;;;;;;;;;;;13.96;64.69;99009.03;4953917;29;19945;-80
2023/10/27 02:52:46;;;;;;;;;;;;;;;13.98;64.85;99009.53;4937631;29;19918;-79
2023/10/27 02:55:11;;;;;;;;;;;;;;;13.97;64.80;99003.28;4954622;29;20148;-82
2023/10/27 02:57:36;;;;;;;;;;;;;;;13.98;64.77;98998.66;4954942;29;19922;-85
2023/10/27 03:00:03;;;;;;;;;;;;;;;13.97;64.54;99003.28;4951204;29;19918;-82
2023/10/27 03:02:28;;;;;;;;;;;;;;;13.98;64.61;99001.38;4970436;28;19929;-83
2023/10/27 03:04:57;;;;;;;;;;;;;;;13.98;64.61;98993.22;4955140;29;19919;-81
2023/10/27 03:07:22;;;;;;;;;;;;;;;13.98;64.61;98994.03;4952802;29;19923;-80
2023/10/27 03:09:48;;;;;;;;;;;;;;;13.98;64.31;98988.59;4950220;28;19945;-80
2023/10/27 03:12:14;;;;;;;;;;;;;;;13.98;64.55;98985.88;4944830;29;20009;-81
2023/10/27 03:14:40;;;;;;;;;;;;;;;13.98;64.75;98985.88;4947301;28;19922;-79
2023/10/27 03:17:05;;;;;;;;;;;;;;;13.98;64.50;98985.88;4951705;28;20295;-82
2023/10/27 03:19:30;;;;;;;;;;;;;;;13.99;64.42;98989.44;4950178;29;20270;-80
2023/10/27 03:21:56;;;;;;;;;;;;;;;13.98;64.55;98994.03;4933694;29;20002;-80
2023/10/27 03:24:22;;;;;;;;;;;;;;;13.99;64.63;98995.66;4950183;29;19926;-80
2023/10/27 03:26:47;;;;;;;;;;;;;;;13.98;64.71;98994.03;4930110;29;20359;-80
2023/10/27 03:29:13;;;;;;;;;;;;;;;13.98;64.80;98985.09;4952742;29;19953;-80
2023/10/27 03:31:38;;;;;;;;;;;;;;;13.98;64.72;98987.81;4948760;28;19961;-80
2023/10/27 03:34:03;;;;;;;;;;;;;;;13.98;64.83;98983.16;4951628;29;20020;-79
2023/10/27 03:36:29;;;;;;;;;;;;;;;13.98;64.55;98985.88;4933886;29;19974;-80
2023/10/27 03:38:54;;;;;;;;;;;;;;;13.98;64.70;98982.38;4944166;28;20283;-80
2023/10/27 03:41:19;;;;;;;;;;;;;;;13.98;64.74;98985.09;4933513;29;19931;-80
2023/10/27 03:43:44;;;;;;;;;;;;;;;13.98;64.75;98982.38;4947167;28;20288;-80
2023/10/27 03:46:10;;;;;;;;;;;;;;;13.98;64.47;98979.66;4951281;28;19977;-79
2023/10/27 03:48:35;;;;;;;;;;;;;;;13.98;64.75;98979.66;4949019;28;19930;-80
2023/10/27 03:51:05;;;;;;;;;;;;;;;13.97;64.85;98978.88;4946319;29;19922;-79
2023/10/27 03:53:30;;;;;;;;;;;;;;;13.97;64.59;98969.94;4935792;29;19923;-81
2023/10/27 03:55:56;;;;;;;;;;;;;;;13.98;64.79;98985.09;4950121;28;19926;-81
2023/10/27 03:58:21;;;;;;;;;;;;;;;13.98;64.79;98975.03;4944300;29;19923;-81
2023/10/27 04:00:46;;;;;;;;;;;;;;;13.97;64.42;98976.16;4947835;29;19923;-80
2023/10/27 04:03:12;;;;;;;;;;;;;;;13.98;64.61;98974.22;4935230;29;19926;-82
2023/10/27 04:05:37;;;;;;;;;;;;;;;13.99;64.45;98981.28;4953935;28;20282;-83
2023/10/27 04:08:04;;;;;;;;;;;;;;;13.97;64.65;98984.28;4949293;29;19918;-82
2023/10/27 04:10:31;;;;;;;;;;;;;;;13.98;64.76;98982.38;4948429;28;19926;-83
2023/10/27 04:12:57;;;;;;;;;;;;;;;13.98;64.58;98983.16;4940119;29;19981;-84
2023/10/27 04:15:22;;;;;;;;;;;;;;;13.97;64.34;98978.88;4959216;28;19954;-82
2023/10/27 04:17:47;;;;;;;;;;;;;;;13.97;64.71;98983.50;4947774;28;19923;-81
2023/10/27 04:20:13;;;;;;;;;;;;;;;13.97;64.75;98984.28;4943733;29;20071;-81
2023/10/27 04:22:38;;;;;;;;;;;;;;;13.98;64.54;98985.09;4957034;28;19933;-82
2023/10/27 04:25:05;;;;;;;;;;;;;;;13.97;64.76;98984.28;4951309;29;19925;-82
2023/10/27 04:27:30;;;;;;;;;;;;;;;13.96;64.59;98977.28;4929876;29;19929;-84
2023/10/27 04:29:57;;;;;;;;;;;;;;;13.98;64.61;98985.09;4961030;28;19926;-84
2023/10/27 04:32:24;;;;;;;;;;;;;;;13.97;64.43;98989.72;4949732;29;19927;-84
2023/10/27 04:34:49;;;;;;;;;;;;;;;13.97;64.77;98987.00;4936647;29;20038;-83
2023/10/27 04:37:14;;;;;;;;;;;;;;;13.97;64.47;98981.59;4943212;29;20289;-84
2023/10/27 04:39:40;;;;;;;;;;;;;;;13.98;64.58;98990.53;4951197;29;20020;-84
2023/10/27 04:42:05;;;;;;;;;;;;;;;13.96;64.57;98984.59;4939349;29;20021;-84
2023/10/27 04:44:30;;;;;;;;;;;;;;;13.96;64.51;98988.13;4929101;29;20356;-84
2023/10/27 04:46:56;;;;;;;;;;;;;;;13.97;64.82;98992.44;4950747;29;19933;-83
2023/10/27 04:49:21;;;;;;;;;;;;;;;13.96;64.56;98990.03;4950792;29;19970;-83
2023/10/27 04:51:46;;;;;;;;;;;;;;;13.97;64.63;98987.00;4951282;29;20285;-83
2023/10/27 04:54:11;;;;;;;;;;;;;;;13.96;64.67;98987.31;4951689;29;19919;-83
2023/10/27 04:56:37;;;;;;;;;;;;;;;13.95;64.82;98983.78;4940287;28;19922;-83
2023/10/27 04:59:03;;;;;;;;;;;;;;;13.95;64.54;98989.22;4939174;29;19969;-83
2023/10/27 05:01:28;;;;;;;;;;;;;;;13.95;64.57;98983.78;4938134;29;20024;-83
2023/10/27 05:03:53;;;;;;;;;;;;;;;13.95;64.64;98980.28;4936337;29;20375;-83
2023/10/27 05:06:19;;;;;;;;;;;;;;;13.95;64.54;98974.84;4940098;29;19974;-83
2023/10/27 05:08:45;;;;;;;;;;;;;;;13.96;64.72;98976.44;4935169;29;20295;-83
2023/10/27 05:11:11;;;;;;;;;;;;;;;13.95;64.44;98978.38;4950072;28;20017;-83
2023/10/27 05:13:36;;;;;;;;;;;;;;;13.95;64.49;98972.94;4940342;29;19969;-84
2023/10/27 05:16:01;;;;;;;;;;;;;;;13.95;64.47;98977.56;4945790;28;19918;-84
2023/10/27 05:18:27;;;;;;;;;;;;;;;13.95;64.69;98964.78;4951782;28;19918;-83
2023/10/27 05:20:53;;;;;;;;;;;;;;;13.95;64.72;98970.22;4954466;29;19918;-83
2023/10/27 05:23:18;;;;;;;;;;;;;;;13.95;64.56;98969.44;4951713;29;20642;-85
2023/10/27 05:25:43;;;;;;;;;;;;;;;13.95;64.77;98974.84;4950180;28;20375;-87
2023/10/27 05:28:08;;;;;;;;;;;;;;;13.95;64.78;98970.22;4953679;29;19922;-88
2023/10/27 05:30:34;;;;;;;;;;;;;;;13.95;64.78;98967.50;4952933;29;19981;-87
2023/10/27 05:32:59;;;;;;;;;;;;;;;13.96;64.67;98965.59;4934646;29;19969;-86
2023/10/27 05:35:25;;;;;;;;;;;;;;;13.95;64.77;98967.50;4956461;28;20379;-85
2023/10/27 05:37:50;;;;;;;;;;;;;;;13.96;64.57;98966.41;4949610;28;19980;-85
2023/10/27 05:40:16;;;;;;;;;;;;;;;13.96;64.43;98971.84;4950572;28;19976;-84
2023/10/27 05:42:41;;;;;;;;;;;;;;;13.96;64.80;98965.59;4948539;29;19926;-85
2023/10/27 05:45:07;;;;;;;;;;;;;;;13.96;64.67;98968.31;4950350;29;20000;-85
2023/10/27 05:47:32;;;;;;;;;;;;;;;13.96;64.47;98968.31;4925721;29;19935;-84
2023/10/27 05:49:57;;;;;;;;;;;;;;;13.96;64.72;98976.44;4947418;29;19917;-86
2023/10/27 05:52:23;;;;;;;;;;;;;;;13.96;64.58;98962.88;4945026;29;20449;-87
2023/10/27 05:54:48;;;;;;;;;;;;;;;13.97;64.58;98967.22;4953570;29;19914;-84
2023/10/27 05:57:13;;;;;;;;;;;;;;;13.97;64.65;98970.72;4936219;29;20363;-85
2023/10/27 05:59:40;;;;;;;;;;;;;;;13.96;64.47;98969.13;4949623;29;19914;-85
2023/10/27 06:02:06;;;;;;;;;;;;;;;13.96;64.69;98968.31;4948765;29;20491;-85
2023/10/27 06:04:32;;;;;;;;;;;;;;;13.96;64.26;98969.13;4941533;29;19922;-86
2023/10/27 06:06:57;;;;;;;;;;;;;;;13.96;64.44;98971.03;4937305;29;19926;-86
2023/10/27 06:09:22;;;;;;;;;;;;;;;13.95;64.66;98975.66;4970185;28;20377;-85
2023/10/27 06:11:47;;;;;;;;;;;;;;;13.96;64.71;98965.59;4954255;28;19927;-85
2023/10/27 06:14:13;;;;;;;;;;;;;;;13.97;64.68;98980.78;4936904;29;19926;-86
2023/10/27 06:16:38;;;;;;;;;;;;;;;13.96;64.44;98976.44;4945266;28;19929;-86
2023/10/27 06:19:03;;;;;;;;;;;;;;;13.96;64.63;98965.59;4963763;28;20332;-85
2023/10/27 06:21:29;;;;;;;;;;;;;;;13.95;64.64;98964.78;4955661;29;20426;-86
2023/10/27 06:23:54;;;;;;;;;;;;;;;13.96;64.33;98962.88;4951726;29;19918;-86
2023/10/27 06:26:19;;;;;;;;;;;;;;;13.95;64.38;98967.50;4953735;29;19929;-83
2023/10/27 06:28:46;;;;;;;;;;;;;;;13.95;64.59;98970.22;4952905;29;19930;-84
2023/10/27 06:31:11;;;;;;;;;;;;;;;13.95;64.56;98970.22;4954832;29;19959;-83
2023/10/27 06:33:36;;;;;;;;;;;;;;;13.95;64.44;98975.66;4950828;29;19919;-85
2023/10/27 06:36:02;;;;;;;;;;;;;;;13.95;64.62;98985.72;4940620;29;19918;-85
2023/10/27 06:38:27;;;;;;;;;;;;;;;13.94;64.36;98984.91;4937427;29;19945;-84
2023/10/27 06:40:52;;;;;;;;;;;;;;;13.93;64.47;98986.00;4955912;29;20021;-85
2023/10/27 06:43:18;;;;;;;;;;;;;;;13.94;64.45;98989.56;4952063;29;21232;-85
2023/10/27 06:45:44;;;;;;;;;;;;;;;13.94;64.67;98995.78;4953241;29;19925;-84
2023/10/27 06:48:09;;;;;;;;;;;;;;;13.94;64.64;98989.56;4949571;29;19961;-85
2023/10/27 06:50:34;;;;;;;;;;;;;;;13.94;64.41;98998.50;4955097;28;19922;-84
2023/10/27 06:52:59;;;;;;;;;;;;;;;13.94;64.61;98994.97;4945194;29;20426;-83
2023/10/27 06:55:25;;;;;;;;;;;;;;;13.95;64.62;99004.72;4954094;29;20322;-82
2023/10/27 06:57:50;;;;;;;;;;;;;;;13.95;64.70;99002.00;4951637;29;19926;-82
2023/10/27 07:00:15;;;;;;;;;;;;;;;13.95;64.57;99007.44;4937120;29;19961;-83
2023/10/27 07:02:41;;;;;;;;;;;;;;;13.95;64.36;99004.72;4947980;28;19934;-83
2023/10/27 07:05:08;;;;;;;;;;;;;;;13.93;64.39;99007.72;4951984;29;19926;-83
2023/10/27 07:07:34;;;;;;;;;;;;;;;13.92;64.47;99005.34;4950391;28;19970;-83
2023/10/27 07:09:59;;;;;;;;;;;;;;;13.94;64.46;99003.91;4952379;28;19923;-86
2023/10/27 07:12:24;;;;;;;;;;;;;;;13.94;64.41;99014.78;4926181;29;20282;-82
2023/10/27 07:14:49;;;;;;;;;;;;;;;13.94;64.61;99013.97;4944916;29;19922;-81
2023/10/27 07:17:15;;;;;;;;;;;;;;;13.94;64.53;99016.69;4944641;28;20343;-83
2023/10/27 07:19:40;;;;;;;;;;;;;;;13.94;64.42;99020.19;4950231;28;19931;-82
2023/10/27 07:22:05;;;;;;;;;;;;;;;13.94;64.56;99024.84;4953144;29;19923;-84
2023/10/27 07:24:32;;;;;;;;;;;;;;;13.95;64.55;99023.72;4952623;29;20287;-83
2023/10/27 07:26:57;;;;;;;;;;;;;;;13.94;64.64;99019.41;4949082;29;20290;-84
2023/10/27 07:29:23;;;;;;;;;;;;;;;13.93;64.47;99021.28;4948471;29;19967;-84
2023/10/27 07:31:48;;;;;;;;;;;;;;;13.94;64.53;99041.91;4953002;29;20350;-85
2023/10/27 07:34:14;;;;;;;;;;;;;;;13.94;64.52;99033.78;4955890;29;19918;-84
2023/10/27 07:36:40;;;;;;;;;;;;;;;13.94;64.43;99032.97;4954121;28;19962;-81
2023/10/27 07:39:05;;;;;;;;;;;;;;;13.95;64.60;99037.28;4946313;29;19922;-83
2023/10/27 07:41:32;;;;;;;;;;;;;;;13.95;64.57;99037.28;4944525;29;19966;-82
2023/10/27 07:43:57;;;;;;;;;;;;;;;13.94;64.56;99041.13;4952724;29;20375;-84
2023/10/27 07:46:23;;;;;;;;;;;;;;;13.94;64.50;99031.06;4936582;29;19955;-82
2023/10/27 07:48:49;;;;;;;;;;;;;;;13.94;64.54;99041.91;4950003;28;20417;-83
2023/10/27 07:51:15;;;;;;;;;;;;;;;13.94;64.53;99046.56;4962222;29;19935;-83
2023/10/27 07:53:40;;;;;;;;;;;;;;;13.93;64.50;99040.28;4952322;28;20035;-85
2023/10/27 07:56:05;;;;;;;;;;;;;;;13.94;64.60;99035.69;4964080;29;19961;-82
2023/10/27 07:58:31;;;;;;;;;;;;;;;13.94;64.67;99035.69;4952370;29;20352;-82
2023/10/27 08:00:56;;;;;;;;;;;;;;;13.95;64.62;99042.72;4950550;28;19922;-86
2023/10/27 08:03:22;;;;;;;;;;;;;;;13.95;64.67;99042.72;4953138;28;20021;-84
2023/10/27 08:05:47;;;;;;;;;;;;;;;13.95;64.62;99048.16;4951346;28;19919;-76
2023/10/27 08:08:13;;;;;;;;;;;;;;;13.95;64.38;99050.84;4940455;28;20386;-84
2023/10/27 08:10:38;;;;;;;;;;;;;;;13.94;64.37;99052.78;4949285;29;20327;-83
2023/10/27 08:13:03;;;;;;;;;;;;;;;13.94;64.67;99058.19;4943564;28;20257;-83
2023/10/27 08:15:29;;;;;;;;;;;;;;;13.94;64.53;99057.41;4950861;29;19922;-82
2023/10/27 08:17:54;;;;;;;;;;;;;;;13.94;64.44;99058.19;4931680;29;19922;-83
2023/10/27 08:20:19;;;;;;;;;;;;;;;13.94;64.72;99057.41;4945544;29;19923;-86
2023/10/27 08:22:45;;;;;;;;;;;;;;;13.94;64.67;99060.13;4945302;29;20425;-84
2023/10/27 08:25:11;;;;;;;;;;;;;;;13.94;64.37;99060.91;4947453;28;19929;-83
2023/10/27 08:27:37;;;;;;;;;;;;;;;13.95;64.43;99064.44;4949466;29;20302;-86
2023/10/27 08:30:02;;;;;;;;;;;;;;;13.95;64.22;99064.44;4951294;29;19923;-85
2023/10/27 08:32:27;;;;;;;;;;;;;;;13.95;64.56;99067.16;4947155;28;19984;-85
2023/10/27 08:34:53;;;;;;;;;;;;;;;13.95;64.38;99075.28;4942296;28;20364;-85
2023/10/27 08:37:18;;;;;;;;;;;;;;;13.95;64.59;99076.09;4958881;28;19926;-85
2023/10/27 08:39:44;;;;;;;;;;;;;;;13.96;64.57;99077.72;4951268;29;20371;-88
2023/10/27 08:42:10;;;;;;;;;;;;;;;13.96;64.54;99077.72;4952170;29;19919;-87
2023/10/27 08:44:36;;;;;;;;;;;;;;;13.95;64.33;99076.09;4950845;29;19926;-87
2023/10/27 08:47:04;;;;;;;;;;;;;;;13.97;64.57;99073.88;4949867;29;19925;-83
2023/10/27 08:49:30;;;;;;;;;;;;;;;13.98;64.58;99077.38;4955222;28;19969;-85
2023/10/27 08:51:56;;;;;;;;;;;;;;;13.96;64.29;99061.41;4939839;29;19946;-88
2023/10/27 08:54:22;;;;;;;;;;;;;;;13.97;64.50;99065.72;4952400;29;19922;-86
2023/10/27 08:56:47;;;;;;;;;;;;;;;13.98;64.54;99071.97;4945832;29;20009;-86
2023/10/27 08:59:13;;;;;;;;;;;;;;;13.98;64.54;99069.25;4944311;28;19926;-88
2023/10/27 09:01:38;;;;;;;;;;;;;;;13.98;64.33;99069.25;4944660;28;19926;-88
2023/10/27 09:04:20;;;;;;;;;;;;;;;13.99;64.46;99077.09;4945715;28;19978;-86
2023/10/27 09:06:46;;;;;;;;;;;;;;;13.98;64.35;99061.91;4958536;28;20036;-86
2023/10/27 09:09:11;;;;;;;;;;;;;;;13.98;64.60;99061.91;4947749;28;20024;-87
2023/10/27 09:11:43;;;;;;;;;;;;;;;13.98;64.42;99067.31;4943405;28;19926;-87
2023/10/27 09:14:19;;;;;;;;;;;;;;;13.99;64.61;99068.16;4945815;28;20070;-85
2023/10/27 09:16:45;;;;;;;;;;;;;;;13.98;64.31;99080.91;4945875;28;19918;-90
2023/10/27 09:19:17;;;;;;;;;;;;;;;13.99;64.62;99082.53;4949530;28;19933;-88
2023/10/27 09:21:44;;;;;;;;;;;;;;;13.98;64.54;99080.09;4948694;28;20286;-85
2023/10/27 09:24:10;;;;;;;;;;;;;;;14.00;64.54;99083.31;4947948;28;19923;-90
2023/10/27 09:26:46;;;;;;;;;;;;;;;14.00;64.43;99086.81;4947562;28;19934;-86
2023/10/27 09:29:11;;;;;;;;;;;;;;;14.01;64.36;99072.16;4943416;29;20367;-88
2023/10/27 09:31:36;;;;;;;;;;;;;;;14.00;64.31;99077.88;4928535;29;19949;-84
2023/10/27 09:34:20;;;;;;;;;;;;;;;14.01;64.50;99074.06;4945241;29;19922;-87
2023/10/27 09:36:47;;;;;;;;;;;;;;;14.00;64.48;99065.09;4961267;28;19926;-86
2023/10/27 09:39:34;;;;;;;;;;;;;;;14.00;64.59;99067.03;4960445;28;20339;-87
2023/10/27 09:42:03;;;;;;;;;;;;;;;14.00;64.48;99067.81;4943349;28;20021;-87
2023/10/27 09:44:49;;;;;;;;;;;;;;;14.01;64.29;99066.72;4948700;28;19926;-88
2023/10/27 09:47:19;;;;;;;;;;;;;;;14.01;64.54;99069.44;4946290;29;19918;-88
2023/10/27 09:49:48;;;;;;;;;;;;;;;14.01;64.30;99069.44;4947446;29;19965;-89
2023/10/27 09:52:16;;;;;;;;;;;;;;;14.01;64.43;99080.31;4952530;29;19923;-77
2023/10/27 09:54:41;;;;;;;;;;;;;;;14.00;64.60;99086.81;4953473;29;19930;-76
2023/10/27 09:57:07;;;;;;;;;;;;;;;14.02;64.63;99089.25;4952251;29;19926;-89
2023/10/27 09:59:33;;;;;;;;;;;;;;;14.02;64.61;99078.38;4960197;28;19918;-89
2023/10/27 10:02:02;;;;;;;;;;;;;;;14.02;64.67;99078.38;4959985;28;20375;-89
2023/10/27 10:04:47;;;;;;;;;;;;;;;14.02;64.32;99086.53;4947690;29;20018;-89
2023/10/27 10:07:12;;;;;;;;;;;;;;;14.03;64.73;99088.94;4942025;29;19914;-89
2023/10/27 10:09:43;;;;;;;;;;;;;;;14.02;64.66;99094.69;4957264;28;20079;-90
2023/10/27 10:12:10;;;;;;;;;;;;;;;14.01;64.63;99088.44;4948173;28;19918;-85
2023/10/27 10:14:35;;;;;;;;;;;;;;;14.03;64.60;99097.06;4948826;28;19922;-88
2023/10/27 10:17:00;;;;;;;;;;;;;;;14.04;64.66;99100.63;4946221;28;20291;-86
2023/10/27 10:19:45;;;;;;;;;;;;;;;14.04;64.66;99097.91;4948582;28;20342;-86
2023/10/27 10:22:30;;;;;;;;;;;;;;;14.04;64.58;99100.63;4944412;29;19919;-82
2023/10/27 10:25:18;;;;;;;;;;;;;;;14.04;64.49;99101.41;4957867;28;19950;-83
2023/10/27 10:28:03;;;;;;;;;;;;;;;14.05;64.60;99096.78;4945521;28;19918;-84
2023/10/27 10:30:29;;;;;;;;;;;;;;;14.05;64.56;99094.84;4948757;29;19943;-84
2023/10/27 10:33:14;;;;;;;;;;;;;;;14.06;64.78;99095.66;4950352;29;20371;-86
2023/10/27 10:35:40;;;;;;;;;;;;;;;14.06;64.77;99098.38;4941256;29;19919;-87
2023/10/27 10:38:23;;;;;;;;;;;;;;;14.06;64.76;99103.81;4936384;29;19986;-87
2023/10/27 10:40:49;;;;;;;;;;;;;;;14.05;64.62;99103.00;4963241;28;19954;-87
2023/10/27 10:43:24;;;;;;;;;;;;;;;14.06;64.79;99096.47;4950461;28;20016;-88
2023/10/27 10:45:57;;;;;;;;;;;;;;;14.06;64.41;99087.50;4946505;28;19926;-88
2023/10/27 10:48:26;;;;;;;;;;;;;;;14.07;64.54;99097.28;4947150;29;20052;-85
2023/10/27 10:50:53;;;;;;;;;;;;;;;14.07;64.66;99095.34;4946436;28;20330;-88
2023/10/27 10:53:21;;;;;;;;;;;;;;;14.07;64.62;99098.06;4950108;29;19933;-88
2023/10/27 10:55:48;;;;;;;;;;;;;;;14.07;64.83;99095.34;4951722;29;20009;-88
2023/10/27 10:58:20;;;;;;;;;;;;;;;14.07;64.88;99091.84;4942676;29;19925;-87
2023/10/27 11:00:48;;;;;;;;;;;;;;;14.07;64.89;99098.06;4953066;28;19953;-89
2023/10/27 11:03:13;;;;;;;;;;;;;;;14.06;64.98;99093.78;4949481;29;19983;-87
2023/10/27 11:05:39;;;;;;;;;;;;;;;14.08;64.99;99096.16;4947907;28;19985;-87
2023/10/27 11:08:04;;;;;;;;;;;;;;;14.07;65.02;99100.78;4953643;29;19925;-87
2023/10/27 11:10:32;;;;;;;;;;;;;;;14.08;65.02;99101.59;4947728;29;19921;-87
2023/10/27 11:13:00;;;;;;;;;;;;;;;14.08;65.17;99096.16;4934173;29;20310;-88
2023/10/27 11:15:51;;;;;;;;;;;;;;;14.09;65.24;99096.97;4952018;29;20013;-84
2023/10/27 11:18:16;;;;;;;;;;;;;;;14.07;65.01;99094.56;4953183;29;19965;-88
2023/10/27 11:20:45;;;;;;;;;;;;;;;14.08;65.19;99096.16;4953932;29;19915;-88
2023/10/27 11:23:14;;;;;;;;;;;;;;;14.08;65.17;99101.59;4940564;28;20355;-89
2023/10/27 11:25:40;;;;;;;;;;;;;;;14.09;64.96;99095.06;4950716;29;19982;-78
2023/10/27 11:28:22;;;;;;;;;;;;;;;14.10;65.15;99098.56;4946080;29;19919;-88
2023/10/27 11:31:00;;;;;;;;;;;;;;;14.12;65.11;99099.09;4942139;29;19925;-87
2023/10/27 11:33:25;;;;;;;;;;;;;;;14.10;65.03;99099.38;4966274;28;20298;-89
2023/10/27 11:35:51;;;;;;;;;;;;;;;14.12;65.24;99099.09;4948720;28;19914;-89
2023/10/27 11:38:16;;;;;;;;;;;;;;;14.13;65.23;99093.31;4949091;29;20294;-88
2023/10/27 11:40:41;;;;;;;;;;;;;;;14.14;65.29;99096.88;4948811;29;19953;-89
2023/10/27 11:43:06;;;;;;;;;;;;;;;14.15;65.27;99096.53;4947544;29;19930;-87
2023/10/27 11:45:33;;;;;;;;;;;;;;;14.15;65.34;99093.81;4952371;29;20355;-88
2023/10/27 11:47:59;;;;;;;;;;;;;;;14.16;65.18;99094.63;4944745;28;19919;-87
2023/10/27 11:50:24;;;;;;;;;;;;;;;14.16;65.24;99097.34;4945575;28;20140;-84
2023/10/27 11:52:49;;;;;;;;;;;;;;;14.16;65.21;99092.75;4954265;29;19922;-87
2023/10/27 11:55:15;;;;;;;;;;;;;;;14.17;65.37;99091.63;4952939;29;19984;-85
2023/10/27 11:57:40;;;;;;;;;;;;;;;14.19;65.46;99099.47;4943986;28;19923;-87
2023/10/27 12:00:08;;;;;;;;;;;;;;;14.18;65.55;99093.22;4950859;29;19922;-86
2023/10/27 12:02:34;;;;;;;;;;;;;;;14.20;65.29;99093.72;4950089;29;20363;-86
2023/10/27 12:04:59;;;;;;;;;;;;;;;14.20;65.33;99099.13;4950555;28;20013;-89
2023/10/27 12:07:24;;;;;;;;;;;;;;;14.20;65.26;99104.56;4951607;29;19918;-87
2023/10/27 12:09:50;;;;;;;;;;;;;;;14.19;65.53;99102.19;4947234;29;19923;-86
2023/10/27 12:12:15;;;;;;;;;;;;;;;14.19;65.44;99108.41;4943828;28;20420;-86
2023/10/27 12:14:41;;;;;;;;;;;;;;;14.19;65.62;99104.91;4947151;28;19922;-83
2023/10/27 12:17:06;;;;;;;;;;;;;;;14.20;65.31;99107.28;4949424;28;21356;-85
2023/10/27 12:19:32;;;;;;;;;;;;;;;14.23;65.26;99105.88;4931942;29;19978;-84
2023/10/27 12:21:58;;;;;;;;;;;;;;;14.25;65.49;99114.53;4953623;29;19949;-83
2023/10/27 12:24:23;;;;;;;;;;;;;;;14.22;65.58;99118.66;4950875;29;19915;-85
2023/10/27 12:26:49;;;;;;;;;;;;;;;14.21;65.80;99118.94;4950198;28;19973;-85
2023/10/27 12:29:15;;;;;;;;;;;;;;;14.19;65.91;99123.91;4950615;28;19928;-84
2023/10/27 12:31:40;;;;;;;;;;;;;;;14.20;65.71;99125.50;4942770;28;19930;-86
2023/10/27 12:34:06;;;;;;;;;;;;;;;14.21;65.74;99117.06;4928838;28;19930;-85
2023/10/27 12:36:31;;;;;;;;;;;;;;;14.21;65.86;99117.06;4927494;28;20013;-80
2023/10/27 12:38:56;;;;;;;;;;;;;;;14.22;65.58;99126.00;4939842;28;19927;-82
2023/10/27 12:41:21;;;;;;;;;;;;;;;14.22;65.42;99124.09;4943990;28;19957;-79
2023/10/27 12:43:47;;;;;;;;;;;;;;;14.25;65.71;99130.81;4948415;29;20063;-84